Time;durP1;ratioP1;P1;durP2;ratioP2;P2;SDS_P1;SDS_P2;PMS_P1;PMS_P2;Temp;Humidity;BMP_temperature;BMP_pressure;BME280_temperature;BME280_humidity;BME280_pressure;Samples;Min_cycle;Max_cycle;Signal;HPM_P1;HPM_P2
2021/03/20 00:00:20;;;;;;;129.73;73.00;;;77.50;2073.60;;;;;;5093890;28;20028;-70
2021/03/20 00:02:46;;;;;;;103.23;60.07;;;77.50;2099.20;;;;;;5094983;28;20051;-70
2021/03/20 00:05:13;;;;;;;122.67;67.80;;;77.40;2099.20;;;;;;5093604;28;20393;-72
2021/03/20 00:07:40;;;;;;;116.73;64.37;;;77.40;2099.20;;;;;;5093520;28;20110;-71
2021/03/20 00:10:09;;;;;;;95.07;54.53;;;77.40;2099.20;;;;;;5094718;28;20479;-70
2021/03/20 00:12:35;;;;;;;84.67;50.50;;;77.40;2099.20;;;;;;5095019;28;20126;-73
2021/03/20 00:15:02;;;;;;;80.53;49.23;;;77.40;2099.20;;;;;;5094705;28;20031;-71
2021/03/20 00:17:28;;;;;;;98.03;55.33;;;77.30;2124.80;;;;;;5106961;28;20025;-70
2021/03/20 00:19:54;;;;;;;98.27;54.40;;;77.30;2124.80;;;;;;5074544;28;20031;-72
2021/03/20 00:22:19;;;;;;;101.53;60.30;;;77.30;2124.80;;;;;;5076946;28;20025;-72
2021/03/20 00:24:46;;;;;;;101.73;57.47;;;77.30;2124.80;;;;;;5094870;28;20040;-70
2021/03/20 00:27:11;;;;;;;104.37;58.10;;;77.20;2124.80;;;;;;5093470;28;20024;-72
2021/03/20 00:29:37;;;;;;;106.80;62.47;;;77.20;2124.80;;;;;;5094468;28;20043;-72
2021/03/20 00:32:03;;;;;;;99.50;58.67;;;77.20;2124.80;;;;;;5094376;28;20024;-71
2021/03/20 00:34:29;;;;;;;104.63;58.77;;;77.20;2150.40;;;;;;5094767;28;20042;-70
2021/03/20 00:36:55;;;;;;;104.20;58.83;;;77.20;2150.40;;;;;;5094224;28;20551;-70
2021/03/20 00:39:21;;;;;;;100.17;58.00;;;77.20;2150.40;;;;;;5093330;28;20485;-71
2021/03/20 00:41:47;;;;;;;91.13;52.33;;;77.20;2124.80;;;;;;5094480;28;20020;-71
2021/03/20 00:44:13;;;;;;;88.10;53.73;;;77.20;2150.40;;;;;;5092978;28;20473;-72
2021/03/20 00:46:38;;;;;;;82.87;48.43;;;77.20;2150.40;;;;;;5094435;28;20020;-71
2021/03/20 00:49:05;;;;;;;94.67;54.17;;;77.20;2150.40;;;;;;5093837;28;20032;-70
2021/03/20 00:51:31;;;;;;;93.03;53.10;;;77.20;2150.40;;;;;;5094286;28;20396;-71
2021/03/20 00:53:57;;;;;;;81.70;49.43;;;77.20;2150.40;;;;;;5093134;28;20184;-71
2021/03/20 00:56:23;;;;;;;81.97;49.57;;;77.20;2124.80;;;;;;5094002;28;20099;-71
2021/03/20 00:58:48;;;;;;;102.27;56.53;;;77.20;2124.80;;;;;;5093142;28;20055;-70
2021/03/20 01:01:17;;;;;;;105.67;58.73;;;77.30;2124.80;;;;;;5093254;28;20940;-70
2021/03/20 01:03:45;;;;;;;90.03;53.23;;;77.20;2124.80;;;;;;5104162;28;20422;-70
2021/03/20 01:06:14;;;;;;;89.90;53.77;;;77.20;2124.80;;;;;;5094007;28;20016;-70
2021/03/20 01:08:40;;;;;;;94.23;53.23;;;77.20;2150.40;;;;;;5093859;28;20409;-69
2021/03/20 01:11:08;;;;;;;94.37;54.57;;;77.10;2150.40;;;;;;5092444;28;20039;-70
2021/03/20 01:13:34;;;;;;;93.03;55.83;;;77.10;2124.80;;;;;;5094356;28;20111;-70
2021/03/20 01:16:00;;;;;;;95.03;54.87;;;77.10;2150.40;;;;;;5093711;28;20067;-69
2021/03/20 01:18:26;;;;;;;100.83;57.23;;;77.10;2150.40;;;;;;5093939;28;20032;-70
2021/03/20 01:20:53;;;;;;;94.33;55.03;;;77.00;2150.40;;;;;;5092214;28;20028;-71
2021/03/20 01:23:19;;;;;;;93.00;54.73;;;77.00;2150.40;;;;;;5093806;28;20089;-69
2021/03/20 01:25:45;;;;;;;91.67;54.07;;;76.90;2150.40;;;;;;5093643;28;20035;-69
2021/03/20 01:28:11;;;;;;;98.83;55.40;;;76.90;2150.40;;;;;;5092292;28;20028;-69
2021/03/20 01:30:40;;;;;;;92.70;56.13;;;76.80;2176.00;;;;;;5092340;28;20499;-69
2021/03/20 01:33:07;;;;;;;98.60;56.20;;;76.80;2176.00;;;;;;5093243;28;20379;-70
2021/03/20 01:35:33;;;;;;;95.03;56.00;;;52.10;2176.00;;;;;;5093780;28;20379;-69
2021/03/20 01:38:00;;;;;;;99.53;57.10;;;76.80;2176.00;;;;;;5092847;28;20024;-70
2021/03/20 01:40:49;;;;;;;100.37;59.07;;;76.80;2150.40;;;;;;5093050;28;20103;-69
2021/03/20 01:43:19;;;;;;;99.97;59.67;;;76.80;2150.40;;;;;;5093020;28;20114;-70
2021/03/20 01:45:45;;;;;;;105.10;58.87;;;52.10;2176.00;;;;;;5093492;28;20027;-70
2021/03/20 01:48:11;;;;;;;93.27;56.87;;;52.10;2176.00;;;;;;5092753;28;20051;-70
2021/03/20 01:51:07;;;;;;;99.93;59.60;;;52.10;2176.00;;;;;;5091910;28;20089;-69
2021/03/20 01:53:47;;;;;;;102.90;60.73;;;52.10;2176.00;;;;;;5089985;28;20553;-69
2021/03/20 01:56:21;;;;;;;97.27;57.73;;;52.00;2201.60;;;;;;5093415;28;20457;-71
2021/03/20 01:58:48;;;;;;;107.15;58.95;;;52.10;2176.00;;;;;;5091611;28;20507;-70
2021/03/20 02:01:22;;;;;;;94.03;56.63;;;52.10;2176.00;;;;;;5088347;28;20480;-71
2021/03/20 02:03:49;;;;;;;98.83;60.03;;;52.10;2150.40;;;;;;5091281;28;20034;-70
2021/03/20 02:06:15;;;;;;;91.87;57.20;;;52.10;2176.00;;;;;;5092442;28;20089;-69
2021/03/20 02:08:43;;;;;;;93.17;57.67;;;52.10;2176.00;;;;;;5092922;28;20024;-70
2021/03/20 02:11:43;;;;;;;100.77;59.00;;;52.10;2176.00;;;;;;5092542;28;20027;-69
2021/03/20 02:14:33;;;;;;;106.60;62.90;;;52.10;2176.00;;;;;;5093220;28;20020;-69
2021/03/20 02:17:20;;;;;;;95.40;58.07;;;52.00;2201.60;;;;;;5092477;28;20047;-70
2021/03/20 02:20:27;;;;;;;95.07;56.40;;;51.90;2201.60;;;;;;5092990;28;20024;-69
2021/03/20 02:23:08;;;;;;;85.40;50.83;;;51.90;2201.60;;;;;;5055130;28;20029;-70
2021/03/20 02:26:12;;;;;;;99.60;58.63;;;51.90;2201.60;;;;;;5093073;28;20072;-70
2021/03/20 02:28:56;;;;;;;90.05;54.97;;;51.90;2201.60;;;;;;5092644;28;20027;-69
2021/03/20 02:31:37;;;;;;;;;;;51.90;2201.60;;;;;;5091847;28;20131;-69
2021/03/20 02:34:22;;;;;;;100.10;59.10;;;51.90;2201.60;;;;;;5092439;28;19904;-69
2021/03/20 02:37:11;;;;;;;93.20;54.03;;;51.90;2201.60;;;;;;5092919;28;20081;-70
2021/03/20 02:40:25;;;;;;;95.10;58.07;;;52.00;2201.60;;;;;;5092563;28;20022;-69
2021/03/20 02:43:12;;;;;;;89.22;55.08;;;52.00;2201.60;;;;;;5030158;28;20029;-70
2021/03/20 02:45:45;;;;;;;94.33;56.20;;;52.00;2176.00;;;;;;5030557;28;20030;-69
2021/03/20 02:48:30;;;;;;;98.90;61.33;;;52.10;2176.00;;;;;;5030222;28;20028;-69
2021/03/20 02:51:18;;;;;;;94.73;59.60;;;52.10;2176.00;;;;;;5030584;28;20037;-70
2021/03/20 02:53:58;;;;;;;98.63;56.97;;;52.10;2176.00;;;;;;5034087;28;20032;-70
2021/03/20 02:56:28;;;;;;;102.43;61.43;;;52.00;2176.00;;;;;;5034187;28;20117;-69
2021/03/20 02:59:12;;;;;;;103.33;61.40;;;52.00;2176.00;;;;;;5033997;28;20112;-70
2021/03/20 03:01:43;;;;;;;103.37;62.27;;;51.90;2176.00;;;;;;5033744;28;20494;-71
2021/03/20 03:04:13;;;;;;;111.83;62.80;;;51.80;2176.00;;;;;;5034181;28;20026;-70
2021/03/20 03:06:55;;;;;;;100.67;60.93;;;51.70;2201.60;;;;;;5033722;28;20030;-70
2021/03/20 03:09:33;;;;;;;105.80;62.83;;;51.60;2201.60;;;;;;5046856;28;20114;-69
2021/03/20 03:12:21;;;;;;;117.57;66.80;;;51.50;2227.20;;;;;;5033500;28;20038;-70
2021/03/20 03:14:53;;;;;;;124.87;69.20;;;51.40;2227.20;;;;;;5034268;28;20144;-69
2021/03/20 03:17:21;;;;;;;138.93;74.20;;;26.50;2201.60;;;;;;5039759;28;20032;-69
2021/03/20 03:19:48;;;;;;;134.63;74.43;;;51.20;2227.20;;;;;;5075807;28;20056;-69
2021/03/20 03:22:25;;;;;;;150.20;80.07;;;51.20;2227.20;;;;;;5075500;28;20078;-69
2021/03/20 03:24:58;;;;;;;154.63;82.67;;;51.30;2201.60;;;;;;5075888;28;20103;-70
2021/03/20 03:27:27;;;;;;;155.45;84.32;;;51.40;2201.60;;;;;;5074248;28;20111;-70
2021/03/20 03:29:53;;;;;;;155.73;81.23;;;51.40;2201.60;;;;;;5075428;28;20043;-69
2021/03/20 03:32:43;;;;;;;152.40;81.10;;;51.40;2201.60;;;;;;5075388;28;20099;-69
2021/03/20 03:35:33;;;;;;;138.13;74.33;;;51.40;2201.60;;;;;;5074130;28;20028;-70
2021/03/20 03:38:29;;;;;;;149.97;79.83;;;51.50;2201.60;;;;;;5075359;28;20060;-69
2021/03/20 03:41:20;;;;;;;127.47;71.37;;;51.50;2227.20;;;;;;5075330;28;20032;-70
2021/03/20 03:43:48;;;;;;;122.50;65.97;;;51.60;2201.60;;;;;;5075476;28;20097;-70
2021/03/20 03:46:14;;;;;;;103.53;64.10;;;51.70;2227.20;;;;;;5095986;28;20029;-70
2021/03/20 03:48:40;;;;;;;99.63;59.53;;;51.70;2227.20;;;;;;5095353;28;20024;-70
2021/03/20 03:51:15;;;;;;;100.10;62.50;;;51.70;2227.20;;;;;;5095179;28;20318;-69
2021/03/20 03:53:41;;;;;;;106.27;65.53;;;51.80;2227.20;;;;;;5095503;28;20099;-70
2021/03/20 03:56:34;;;;;;;105.20;63.00;;;51.80;2227.20;;;;;;5093925;28;20031;-69
2021/03/20 03:59:16;;;;;;;99.30;62.53;;;51.70;2227.20;;;;;;5095347;28;20032;-69
2021/03/20 04:01:48;;;;;;;99.10;60.70;;;51.80;2227.20;;;;;;5093795;28;20143;-70
2021/03/20 04:04:35;;;;;;;112.50;65.73;;;51.80;2227.20;;;;;;5095436;28;20028;-69
2021/03/20 04:07:16;;;;;;;102.23;62.63;;;51.80;2201.60;;;;;;5094955;28;20017;-70
2021/03/20 04:10:18;;;;;;;108.40;63.57;;;51.70;2227.20;;;;;;5095284;28;20047;-69
2021/03/20 04:13:03;;;;;;;105.83;63.73;;;51.80;2227.20;;;;;;5076908;28;20047;-70
2021/03/20 04:16:01;;;;;;;101.83;62.77;;;51.70;2227.20;;;;;;5093877;28;20019;-70
2021/03/20 04:18:38;;;;;;;108.73;66.00;;;51.70;2227.20;;;;;;5087021;28;20555;-69
2021/03/20 04:21:16;;;;;;;106.47;65.80;;;51.70;2227.20;;;;;;5093512;28;20020;-70
2021/03/20 04:24:06;;;;;;;109.80;68.33;;;51.70;2227.20;;;;;;5093653;28;20139;-69
2021/03/20 04:26:42;;;;;;;120.07;70.37;;;51.50;2227.20;;;;;;5093662;28;20046;-69
2021/03/20 04:29:16;;;;;;;117.30;72.57;;;51.50;2227.20;;;;;;5094388;28;20552;-69
2021/03/20 04:31:54;;;;;;;128.63;74.00;;;51.50;2227.20;;;;;;5094689;28;20536;-70
2021/03/20 04:34:34;;;;;;;137.30;77.50;;;51.50;2227.20;;;;;;5094376;28;20095;-69
2021/03/20 04:37:05;;;;;;;125.00;74.10;;;51.50;2227.20;;;;;;5094710;28;20020;-69
2021/03/20 04:39:35;;;;;;;135.83;77.83;;;51.40;2227.20;;;;;;5094262;28;20516;-69
2021/03/20 04:42:03;;;;;;;142.70;83.93;;;51.30;2227.20;;;;;;5094422;28;20024;-70
2021/03/20 04:44:28;;;;;;;164.40;88.40;;;51.30;2227.20;;;;;;5094043;28;20492;-70
2021/03/20 04:46:55;;;;;;;205.13;104.90;;;51.30;2201.60;;;;;;5094483;28;20024;-69
2021/03/20 04:49:40;;;;;;;220.07;110.20;;;26.40;2176.00;;;;;;5094091;28;20475;-69
2021/03/20 04:52:23;;;;;;;289.77;127.90;;;26.50;2201.60;;;;;;5094359;28;20586;-69
2021/03/20 04:54:50;;;;;;;288.30;129.00;;;26.30;2201.60;;;;;;5094027;28;20480;-69
2021/03/20 04:57:24;;;;;;;367.40;148.37;;;26.20;2201.60;;;;;;5094165;28;20099;-70
2021/03/20 04:59:50;;;;;;;331.97;147.37;;;26.10;2201.60;;;;;;5094165;28;20031;-69
2021/03/20 05:02:31;;;;;;;303.57;131.37;;;26.10;2201.60;;;;;;5093594;28;20047;-69
2021/03/20 05:05:05;;;;;;;246.23;118.50;;;26.00;2201.60;;;;;;5094367;28;20433;-69
2021/03/20 05:07:31;;;;;;;;;;;26.00;2201.60;;;;;;5094272;28;20050;-69
2021/03/20 05:10:05;;;;;;;227.87;105.53;;;25.80;2201.60;;;;;;5094338;28;20268;-69
2021/03/20 05:12:31;;;;;;;233.85;112.35;;;25.80;2201.60;;;;;;5093691;28;20089;-69
2021/03/20 05:15:05;;;;;;;239.07;113.83;;;25.80;2201.60;;;;;;5093264;28;20468;-70
2021/03/20 05:17:32;;;;;;;243.00;114.53;;;25.80;2201.60;;;;;;5093567;28;20089;-69
2021/03/20 05:19:59;;;;;;;284.93;132.43;;;25.80;2201.60;;;;;;5093972;28;20016;-69
2021/03/20 05:22:30;;;;;;;266.30;132.97;;;25.90;2201.60;;;;;;5093265;28;20549;-70
2021/03/20 05:24:57;;;;;;;240.13;121.50;;;25.90;2201.60;;;;;;5093646;28;20482;-69
2021/03/20 05:27:28;;;;;;;209.53;105.27;;;25.90;2201.60;;;;;;5093550;28;20020;-69
2021/03/20 05:29:54;;;;;;;224.30;113.77;;;26.00;2201.60;;;;;;5093362;28;20032;-69
2021/03/20 05:32:29;;;;;;;260.50;134.30;;;26.00;2201.60;;;;;;5093554;28;20038;-69
2021/03/20 05:34:58;;;;;;;205.90;110.63;;;26.10;2201.60;;;;;;5093212;28;20024;-70
2021/03/20 05:37:25;;;;;;;270.47;135.53;;;26.20;2201.60;;;;;;5093739;28;20024;-69
2021/03/20 05:39:52;;;;;;;264.43;135.57;;;26.30;2201.60;;;;;;5093091;28;20111;-69
2021/03/20 05:42:59;;;;;;;258.80;132.27;;;26.30;2201.60;;;;;;5093327;28;20020;-69
2021/03/20 05:45:28;;;;;;;226.87;115.50;;;26.30;2201.60;;;;;;5079263;28;20031;-69
2021/03/20 05:48:15;;;;;;;252.80;128.83;;;26.40;2201.60;;;;;;5093459;28;20024;-69
2021/03/20 05:50:56;;;;;;;225.47;120.83;;;26.50;2201.60;;;;;;5092882;28;20028;-69
2021/03/20 05:53:32;;;;;;;221.63;121.33;;;51.30;2227.20;;;;;;5093243;28;20042;-69
2021/03/20 05:56:22;;;;;;;226.80;120.80;;;51.40;2227.20;;;;;;5092922;28;20028;-69
2021/03/20 05:59:03;;;;;;;204.50;114.00;;;51.50;2227.20;;;;;;5084853;28;20043;-69
2021/03/20 06:01:51;;;;;;;228.37;118.00;;;51.60;2227.20;;;;;;5092749;28;20032;-70
2021/03/20 06:04:43;;;;;;;242.20;122.00;;;51.80;2227.20;;;;;;5092812;28;20025;-69
2021/03/20 06:07:23;;;;;;;287.43;138.87;;;51.90;2201.60;;;;;;5092554;28;20052;-69
2021/03/20 06:10:06;;;;;;;296.17;147.77;;;52.00;2201.60;;;;;;5093128;28;20035;-69
2021/03/20 06:12:50;;;;;;;297.05;145.15;;;52.10;2201.60;;;;;;5092412;28;20023;-69
2021/03/20 06:15:22;;;;;;;269.55;137.05;;;76.80;2201.60;;;;;;5093170;28;20085;-69
2021/03/20 06:18:12;;;;;;;256.67;134.97;;;76.80;2176.00;;;;;;5092628;28;20024;-69
2021/03/20 06:20:59;;;;;;;245.43;127.43;;;77.00;2176.00;;;;;;5092975;28;20063;-70
2021/03/20 06:24:04;;;;;;;215.60;121.07;;;77.10;2176.00;;;;;;5092250;28;20361;-69
2021/03/20 06:26:38;;;;;;;204.97;118.07;;;77.20;2176.00;;;;;;5092844;28;20058;-70
2021/03/20 06:29:23;;;;;;;174.23;103.07;;;77.40;2150.40;;;;;;5092260;28;20116;-69
2021/03/20 06:31:57;;;;;;;178.60;105.70;;;77.50;2150.40;;;;;;5091816;28;20020;-69
2021/03/20 06:34:38;;;;;;;144.43;89.72;;;77.60;2124.80;;;;;;5090021;28;20024;-70
2021/03/20 06:37:15;;;;;;;147.60;92.20;;;77.70;2124.80;;;;;;5091136;28;20129;-70
2021/03/20 06:39:56;;;;;;;156.43;96.23;;;102.40;2124.80;;;;;;5091214;28;20036;-70
2021/03/20 06:42:31;;;;;;;149.90;96.63;;;102.60;2124.80;;;;;;5092867;28;20465;-69
2021/03/20 06:45:16;;;;;;;144.60;97.23;;;102.70;2099.20;;;;;;5092107;28;20031;-70
2021/03/20 06:47:47;;;;;;;130.37;86.07;;;154.20;1971.20;;;;;;5093232;28;20032;-70
2021/03/20 06:50:25;;;;;;;115.20;81.32;;;231.00;1612.80;;;;;;5092363;28;20032;-70
2021/03/20 06:52:58;;;;;;;111.13;79.30;;;332.80;1356.80;;;;;;5092727;28;20020;-71
2021/03/20 06:55:36;;;;;;;128.65;84.28;;;384.50;1126.40;;;;;;5092492;28;20027;-70
2021/03/20 06:58:21;;;;;;;126.65;85.65;;;435.90;947.20;;;;;;5092637;28;20020;-70
2021/03/20 07:00:47;;;;;;;143.60;103.68;;;486.80;844.80;;;;;;5092464;28;20016;-71
2021/03/20 07:03:13;;;;;;;161.57;121.68;;;512.80;768.00;;;;;;5091851;28;20373;-71
2021/03/20 07:06:12;;;;;;;96.28;77.68;;;563.20;742.40;;;;;;5092707;28;20035;-71
2021/03/20 07:08:52;;;;;;;91.18;73.00;;;588.90;716.80;;;;;;5092287;28;20082;-71
2021/03/20 07:11:41;;;;;;;55.50;43.17;;;614.70;665.60;;;;;;5091376;28;20036;-71
2021/03/20 07:14:32;;;;;;;62.45;45.90;;;640.00;588.80;;;;;;5091572;28;20035;-71
2021/03/20 07:17:00;;;;;;;66.05;45.15;;;640.80;563.20;;;;;;5092260;28;20464;-71
2021/03/20 07:19:27;;;;;;;56.00;45.05;;;666.30;537.60;;;;;;5092189;28;20468;-70
2021/03/20 07:21:58;;;;;;;59.13;47.00;;;666.30;537.60;;;;;;5092534;28;20048;-71
2021/03/20 07:24:42;;;;;;;57.42;45.08;;;666.40;537.60;;;;;;5091815;28;20384;-71
2021/03/20 07:27:14;;;;;;;50.75;40.20;;;666.10;563.20;;;;;;5092497;28;20020;-71
2021/03/20 07:30:00;;;;;;;54.08;44.17;;;666.30;537.60;;;;;;5091936;28;20032;-71
2021/03/20 07:32:26;;;;;;;61.58;47.47;;;691.40;512.00;;;;;;5092494;28;20051;-71
2021/03/20 07:34:57;;;;;;;74.07;56.50;;;692.00;486.40;;;;;;5091636;28;20445;-71
2021/03/20 07:37:28;;;;;;;69.28;52.83;;;716.80;512.00;;;;;;5092796;28;20376;-71
2021/03/20 07:39:57;;;;;;;69.38;51.30;;;691.60;486.40;;;;;;5094739;28;20391;-71
2021/03/20 07:42:26;;;;;;;66.28;47.70;;;691.60;512.00;;;;;;5094552;28;20530;-73
2021/03/20 07:45:06;;;;;;;48.28;36.10;;;691.90;512.00;;;;;;5095177;28;20024;-69
2021/03/20 07:47:40;;;;;;;52.58;38.92;;;665.90;537.60;;;;;;5095654;28;20024;-70
2021/03/20 07:50:17;;;;;;;41.33;31.48;;;589.10;640.00;;;;;;5095442;28;20036;-70
2021/03/20 07:52:48;;;;;;;44.08;31.13;;;512.60;665.60;;;;;;5095309;28;20028;-71
2021/03/20 07:55:22;;;;;;;41.75;29.85;;;461.60;768.00;;;;;;5095318;28;20056;-71
2021/03/20 07:57:52;;;;;;;37.63;27.55;;;435.70;844.80;;;;;;5095076;28;20377;-72
2021/03/20 08:00:46;;;;;;;38.65;27.88;;;410.40;921.60;;;;;;5095490;28;20020;-71
2021/03/20 08:03:24;;;;;;;47.08;33.13;;;409.70;947.20;;;;;;5094331;28;20048;-72
2021/03/20 08:05:50;;;;;;;38.50;27.08;;;384.40;972.80;;;;;;5095220;28;20032;-70
2021/03/20 08:08:23;;;;;;;34.67;22.80;;;359.10;1024.00;;;;;;5095058;28;20020;-73
2021/03/20 08:10:58;;;;;;;;;;;358.80;1049.60;;;;;;5094317;28;20385;-70
2021/03/20 08:13:33;;;;;;;38.38;25.25;;;358.40;1049.60;;;;;;5094964;28;20444;-70
2021/03/20 08:15:59;;;;;;;38.25;26.55;;;333.50;1075.20;;;;;;5095348;28;20073;-70
2021/03/20 08:18:27;;;;;;;32.38;22.65;;;333.20;1152.00;;;;;;5094072;28;20024;-70
2021/03/20 08:20:59;;;;;;;35.00;27.38;;;332.90;1126.40;;;;;;5093823;28;20066;-71
2021/03/20 08:23:58;;;;;;;23.83;18.45;;;307.90;1100.80;;;;;;5095014;28;20067;-71
2021/03/20 08:26:46;;;;;;;18.98;15.68;;;307.40;1126.40;;;;;;5093916;28;20111;-70
2021/03/20 08:29:44;;;;;;;28.40;22.27;;;307.20;1126.40;;;;;;5094613;28;20040;-70
2021/03/20 08:32:49;;;;;;;35.38;25.55;;;307.20;1177.60;;;;;;5094599;28;20025;-71
2021/03/20 08:35:32;;;;;;;27.48;19.75;;;282.40;1177.60;;;;;;5073964;28;20107;-71
2021/03/20 08:38:16;;;;;;;27.55;21.08;;;282.30;1203.20;;;;;;5083521;28;20103;-70
2021/03/20 08:40:54;;;;;;;43.08;29.77;;;282.10;1203.20;;;;;;5092994;28;20361;-71
2021/03/20 08:43:32;;;;;;;31.73;22.65;;;282.10;1254.40;;;;;;5093388;28;20027;-71
2021/03/20 08:46:16;;;;;;;22.80;18.58;;;282.00;1228.80;;;;;;5090917;28;20027;-71
2021/03/20 08:49:12;;;;;;;25.90;20.02;;;281.80;1177.60;;;;;;5088095;28;20060;-71
2021/03/20 08:51:38;;;;;;;26.45;19.45;;;281.80;1228.80;;;;;;5056898;28;20105;-71
2021/03/20 08:54:17;;;;;;;24.00;17.85;;;281.80;1254.40;;;;;;5093840;28;20469;-72
2021/03/20 08:57:20;;;;;;;24.50;18.02;;;281.70;1228.80;;;;;;5090574;28;20031;-72
2021/03/20 08:59:52;;;;;;;25.17;18.55;;;281.70;1254.40;;;;;;5083746;28;20039;-72
2021/03/20 09:02:24;;;;;;;32.45;20.40;;;281.70;1254.40;;;;;;5093541;28;20381;-71
2021/03/20 09:04:52;;;;;;;26.02;20.00;;;281.70;1280.00;;;;;;5094285;28;20028;-71
2021/03/20 09:07:37;;;;;;;33.33;22.83;;;281.70;1254.40;;;;;;5093935;28;20024;-71
2021/03/20 09:10:13;;;;;;;22.55;18.02;;;281.60;1254.40;;;;;;5094185;28;20039;-71
2021/03/20 09:12:47;;;;;;;31.98;22.33;;;256.90;1254.40;;;;;;5094027;28;20024;-71
2021/03/20 09:15:26;;;;;;;33.20;22.42;;;256.80;1203.20;;;;;;5092848;28;20024;-71
2021/03/20 09:17:53;;;;;;;22.50;18.08;;;256.80;1228.80;;;;;;5091605;28;20031;-71
2021/03/20 09:20:40;;;;;;;19.65;16.13;;;256.80;1228.80;;;;;;5085972;28;20426;-72
2021/03/20 09:23:15;;;;;;;19.52;14.52;;;256.80;1203.20;;;;;;5073653;28;20385;-71
2021/03/20 09:25:43;;;;;;;20.10;14.52;;;256.50;1152.00;;;;;;5075610;28;20024;-71
2021/03/20 09:28:27;;;;;;;23.02;17.30;;;256.40;1152.00;;;;;;5094087;28;20020;-70
2021/03/20 09:30:59;;;;;;;20.02;15.15;;;256.40;1228.80;;;;;;5091930;28;20043;-71
2021/03/20 09:33:32;;;;;;;21.42;16.20;;;256.50;1228.80;;;;;;5091297;28;20020;-72
2021/03/20 09:36:29;;;;;;;19.98;15.95;;;256.60;1203.20;;;;;;5091084;28;20028;-71
2021/03/20 09:38:59;;;;;;;20.25;15.63;;;256.80;1177.60;;;;;;5084368;28;20389;-72
2021/03/20 09:41:27;;;;;;;19.73;15.25;;;256.90;1152.00;;;;;;5091853;28;20046;-72
2021/03/20 09:43:59;;;;;;;18.02;14.20;;;281.60;1100.80;;;;;;5092149;28;20377;-74
2021/03/20 09:46:40;;;;;;;20.55;14.73;;;281.70;1126.40;;;;;;5091600;28;20487;-71
2021/03/20 09:49:06;;;;;;;21.33;15.75;;;281.70;1100.80;;;;;;5092507;28;20035;-70
2021/03/20 09:51:50;;;;;;;24.15;17.17;;;281.70;1075.20;;;;;;5092948;28;20028;-71
2021/03/20 09:54:26;;;;;;;24.50;17.98;;;281.60;1075.20;;;;;;5093456;28;20084;-71
2021/03/20 09:56:53;;;;;;;30.92;21.20;;;281.80;1152.00;;;;;;5092784;28;20051;-70
2021/03/20 09:59:28;;;;;;;27.08;20.05;;;281.90;1152.00;;;;;;5092994;28;20157;-72
2021/03/20 10:01:59;;;;;;;26.00;19.10;;;282.00;1126.40;;;;;;5092945;28;20133;-71
2021/03/20 10:04:32;;;;;;;29.35;21.45;;;282.00;1177.60;;;;;;5089572;28;20185;-71
2021/03/20 10:07:23;;;;;;;60.90;41.00;;;282.10;1177.60;;;;;;5092396;28;20362;-71
2021/03/20 10:09:58;;;;;;;32.35;22.85;;;282.00;1152.00;;;;;;5072536;28;20562;-71
2021/03/20 10:12:45;;;;;;;60.83;41.17;;;282.10;1100.80;;;;;;5082284;28;20023;-70
2021/03/20 10:15:12;;;;;;;26.20;19.15;;;282.30;1152.00;;;;;;5091756;28;20111;-72
2021/03/20 10:17:59;;;;;;;32.03;21.77;;;282.20;1126.40;;;;;;5092902;28;20103;-71
2021/03/20 10:20:41;;;;;;;23.02;17.40;;;282.30;1100.80;;;;;;5092583;28;20111;-71
2021/03/20 10:23:38;;;;;;;20.02;15.88;;;282.30;1049.60;;;;;;5091719;28;20024;-71
2021/03/20 10:26:25;;;;;;;24.08;19.02;;;282.30;1075.20;;;;;;5092639;28;20492;-72
2021/03/20 10:28:59;;;;;;;25.30;19.02;;;282.30;1126.40;;;;;;5092569;28;20077;-70
2021/03/20 10:31:27;;;;;;;24.27;18.13;;;282.30;1126.40;;;;;;5092633;28;20020;-71
2021/03/20 10:34:12;;;;;;;23.90;17.90;;;282.20;1152.00;;;;;;5092950;28;20020;-71
2021/03/20 10:36:42;;;;;;;24.52;18.38;;;282.30;1126.40;;;;;;5092285;28;20584;-71
2021/03/20 10:39:22;;;;;;;24.40;18.40;;;282.30;1100.80;;;;;;5092938;28;20031;-71
2021/03/20 10:41:50;;;;;;;25.38;19.27;;;282.40;1100.80;;;;;;5092502;28;20085;-71
2021/03/20 10:44:19;;;;;;;25.23;19.42;;;282.40;1100.80;;;;;;5092820;28;20059;-72
2021/03/20 10:46:46;;;;;;;24.08;17.40;;;282.40;1075.20;;;;;;5092444;28;20020;-71
2021/03/20 10:49:23;;;;;;;23.10;16.20;;;282.30;1100.80;;;;;;5092659;28;20070;-71
2021/03/20 10:51:52;;;;;;;19.13;14.55;;;282.40;1049.60;;;;;;5092486;28;20111;-71
2021/03/20 10:54:41;;;;;;;17.58;15.32;;;307.20;1100.80;;;;;;5108128;28;20074;-70
2021/03/20 10:57:10;;;;;;;36.97;26.48;;;307.20;1075.20;;;;;;5092201;28;20024;-72
2021/03/20 10:59:40;;;;;;;19.98;15.68;;;307.30;1100.80;;;;;;5092364;28;20055;-71
2021/03/20 11:02:20;;;;;;;20.65;13.80;;;307.30;1075.20;;;;;;5091609;28;20101;-71
2021/03/20 11:04:47;;;;;;;18.88;12.93;;;307.40;1024.00;;;;;;5092482;28;20024;-69
2021/03/20 11:07:18;;;;;;;17.35;14.23;;;307.40;1024.00;;;;;;5092461;28;20103;-70
2021/03/20 11:09:44;;;;;;;23.98;18.40;;;307.50;1049.60;;;;;;5080670;28;20029;-71
2021/03/20 11:12:29;;;;;;;24.58;18.63;;;307.60;1075.20;;;;;;5080959;28;20069;-71
2021/03/20 11:15:00;;;;;;;20.90;18.10;;;307.60;1075.20;;;;;;5088129;28;20020;-71
2021/03/20 11:17:31;;;;;;;20.98;17.55;;;307.60;1049.60;;;;;;5083155;28;20077;-69
2021/03/20 11:20:20;;;;;;;23.13;17.67;;;307.60;1075.20;;;;;;5082317;28;20020;-71
2021/03/20 11:22:47;;;;;;;17.23;13.93;;;307.40;1024.00;;;;;;5083970;28;20024;-70
2021/03/20 11:25:27;;;;;;;17.50;13.23;;;307.20;1049.60;;;;;;5082029;28;20048;-71
2021/03/20 11:28:06;;;;;;;20.15;15.02;;;282.30;1024.00;;;;;;5081870;28;20032;-72
2021/03/20 11:30:44;;;;;;;18.27;14.38;;;282.10;1075.20;;;;;;5090877;28;20032;-69
2021/03/20 11:33:20;;;;;;;47.78;32.60;;;282.10;1075.20;;;;;;5095402;28;20020;-71
2021/03/20 11:35:50;;;;;;;23.33;16.15;;;282.10;1075.20;;;;;;5095543;28;20028;-70
2021/03/20 11:38:18;;;;;;;58.97;33.13;;;282.00;1024.00;;;;;;5094150;28;20039;-71
2021/03/20 11:40:47;;;;;;;57.30;32.80;;;282.00;972.80;;;;;;5095776;28;20017;-72
2021/03/20 11:43:13;;;;;;;29.33;19.98;;;282.00;972.80;;;;;;5094253;28;20012;-70
2021/03/20 11:45:42;;;;;;;22.63;16.30;;;281.80;1024.00;;;;;;5092663;28;20069;-70
2021/03/20 11:48:19;;;;;;;33.25;23.33;;;281.80;1024.00;;;;;;5107917;28;20053;-71
2021/03/20 11:50:56;;;;;;;25.25;15.88;;;281.80;998.40;;;;;;5096016;28;20075;-69
2021/03/20 11:53:26;;;;;;;38.85;25.10;;;281.90;1049.60;;;;;;5095250;28;20472;-70
2021/03/20 11:55:53;;;;;;;16.48;12.50;;;281.90;1024.00;;;;;;5094887;28;20027;-71
2021/03/20 11:58:28;;;;;;;20.55;14.63;;;281.90;1024.00;;;;;;5094784;28;20021;-70
2021/03/20 12:00:55;;;;;;;21.13;14.65;;;281.80;1024.00;;;;;;5095690;28;20521;-69
2021/03/20 12:03:21;;;;;;;22.90;15.85;;;281.80;1049.60;;;;;;5094636;28;20094;-73
2021/03/20 12:05:52;;;;;;;17.58;13.23;;;281.80;1049.60;;;;;;5094166;28;20070;-71
2021/03/20 12:08:24;;;;;;;17.10;13.00;;;256.90;1049.60;;;;;;5094936;28;20035;-72
2021/03/20 12:11:10;;;;;;;28.05;19.95;;;256.90;1049.60;;;;;;5095071;28;20113;-70
2021/03/20 12:13:44;;;;;;;138.52;71.30;;;256.80;1075.20;;;;;;5095144;28;20023;-72
2021/03/20 12:16:31;;;;;;;50.72;31.38;;;281.60;1075.20;;;;;;5095273;28;20419;-71
2021/03/20 12:19:09;;;;;;;43.65;21.42;;;281.60;1049.60;;;;;;5093599;28;20036;-72
2021/03/20 12:22:14;;;;;;;40.08;20.30;;;281.60;1049.60;;;;;;5094886;28;20099;-71
2021/03/20 12:24:46;;;;;;;102.25;45.97;;;281.60;1049.60;;;;;;5094605;28;20031;-69
2021/03/20 12:27:37;;;;;;;29.42;17.58;;;281.70;1075.20;;;;;;5094844;28;20484;-72
2021/03/20 12:30:16;;;;;;;17.63;11.85;;;281.70;1024.00;;;;;;5094534;28;20590;-70
2021/03/20 12:32:44;;;;;;;14.50;10.40;;;281.60;1049.60;;;;;;5094825;28;20442;-70
2021/03/20 12:35:18;;;;;;;17.00;10.77;;;281.60;1024.00;;;;;;5095037;28;20028;-72
2021/03/20 12:38:02;;;;;;;665.50;293.60;;;281.60;1024.00;;;;;;5094017;28;20024;-71
2021/03/20 12:40:28;;;;;;;378.20;135.63;;;256.90;1024.00;;;;;;5094848;28;20030;-70
2021/03/20 12:42:53;;;;;;;329.88;122.88;;;256.90;1049.60;;;;;;5092973;28;20380;-70